Time;durP1;ratioP1;P1;durP2;ratioP2;P2;SDS_P1;SDS_P2;PMS_P1;PMS_P2;Temp;Humidity;BMP_temperature;BMP_pressure;BME280_temperature;BME280_humidity;BME280_pressure;Samples;Min_cycle;Max_cycle;Signal;HPM_P1;HPM_P2
2021/01/13 00:02:08;;;;;;;4.05;2.90;;;;;;;21.93;40.93;94085.81;4955550;29;20023;-89
2021/01/13 00:04:34;;;;;;;4.40;3.10;;;;;;;21.91;40.90;94093.03;4956496;28;20524;-89
2021/01/13 00:06:59;;;;;;;4.45;3.20;;;;;;;21.92;40.92;94099.22;4957991;29;20027;-88
2021/01/13 00:09:25;;;;;;;4.70;3.20;;;;;;;21.90;40.76;94097.00;4958384;29;20053;-89
2021/01/13 00:11:57;;;;;;;4.32;3.20;;;;;;;21.88;40.95;94099.50;4957017;29;20023;-89
2021/01/13 00:14:23;;;;;;;3.88;2.90;;;;;;;21.83;40.99;94086.03;4957413;28;20070;-89
2021/01/13 00:16:49;;;;;;;4.10;3.08;;;;;;;21.81;41.07;94102.84;4971752;28;20034;-88
2021/01/13 00:19:15;;;;;;;3.70;2.85;;;;;;;21.76;41.07;94086.63;4957092;28;20031;-88
2021/01/13 00:21:40;;;;;;;4.50;3.35;;;;;;;21.77;41.14;94101.69;4972593;28;20551;-89
2021/01/13 00:24:07;;;;;;;4.70;3.33;;;;;;;21.77;41.05;94098.97;4957584;29;20023;-90
2021/01/13 00:26:32;;;;;;;3.40;2.67;;;;;;;21.77;40.96;94104.41;4958616;28;20583;-90
2021/01/13 00:28:58;;;;;;;3.85;3.17;;;;;;;21.76;41.09;94097.50;4978535;28;20035;-91
2021/01/13 00:31:23;;;;;;;3.90;2.92;;;;;;;21.73;40.97;94093.09;4979429;28;20050;-90
2021/01/13 00:33:49;;;;;;;4.40;3.50;;;;;;;21.71;41.05;94090.19;4977564;28;20615;-90
2021/01/13 00:36:25;;;;;;;4.15;3.17;;;;;;;21.66;41.09;94093.75;4978022;28;20034;-89
2021/01/13 00:38:50;;;;;;;4.00;2.83;;;;;;;21.67;41.18;94100.63;4979028;28;20121;-90
2021/01/13 00:41:16;;;;;;;4.43;3.42;;;;;;;21.64;41.10;94090.78;4979089;28;20106;-90
2021/01/13 00:43:42;;;;;;;4.72;3.10;;;;;;;21.42;40.94;94068.66;4979500;28;20042;-90
2021/01/13 00:46:08;;;;;;;4.30;3.45;;;;;;;21.34;41.12;94052.25;4975963;28;20086;-90
2021/01/13 00:48:33;;;;;;;4.85;3.40;;;;;;;21.61;41.28;94097.25;4976547;28;20033;-89
2021/01/13 00:50:59;;;;;;;4.03;3.22;;;;;;;21.59;41.18;94099.78;4960605;28;20031;-90
2021/01/13 00:53:25;;;;;;;3.78;3.22;;;;;;;21.27;40.93;94047.44;4959412;29;20027;-91
2021/01/13 00:55:50;;;;;;;4.43;3.28;;;;;;;21.60;41.07;94084.94;4959661;29;20031;-89
2021/01/13 00:58:15;;;;;;;4.82;3.53;;;;;;;21.56;41.19;94084.50;4957804;28;20090;-90
2021/01/13 01:00:41;;;;;;;3.90;3.05;;;;;;;21.54;41.17;94081.59;4957037;28;20028;-89
2021/01/13 01:03:07;;;;;;;4.03;3.25;;;;;;;21.54;41.26;94082.31;4956887;29;20484;-90
2021/01/13 01:05:32;;;;;;;3.88;3.05;;;;;;;21.52;41.28;94089.50;4956775;28;20035;-92
2021/01/13 01:07:58;;;;;;;4.78;3.50;;;;;;;21.42;41.29;94069.41;4955510;29;20500;-90
2021/01/13 01:10:28;;;;;;;4.18;3.22;;;;;;;21.53;41.20;94074.69;4957005;28;20042;-89
2021/01/13 01:12:53;;;;;;;4.65;3.70;;;;;;;21.28;41.25;94043.47;4956970;28;20027;-89
2021/01/13 01:15:19;;;;;;;4.30;3.08;;;;;;;21.48;41.36;94078.97;4955961;29;20059;-90
2021/01/13 01:17:44;;;;;;;4.88;3.42;;;;;;;21.47;41.48;94071.31;4954812;28;20035;-90
2021/01/13 01:20:10;;;;;;;5.00;3.55;;;;;;;21.46;41.39;94075.28;4957037;28;20030;-89
2021/01/13 01:22:57;;;;;;;4.20;3.20;;;;;;;21.44;41.46;94066.91;4956336;28;20046;-90
2021/01/13 01:25:24;;;;;;;4.93;3.70;;;;;;;21.41;41.35;94073.38;4956381;28;20027;-89
2021/01/13 01:27:50;;;;;;;4.43;3.50;;;;;;;21.43;41.39;94081.72;4956777;28;20035;-89
2021/01/13 01:30:16;;;;;;;4.05;3.10;;;;;;;21.41;41.33;94078.81;4956194;28;20436;-89
2021/01/13 01:32:41;;;;;;;4.03;2.88;;;;;;;21.41;41.45;94073.38;4956154;28;20500;-89
2021/01/13 01:35:07;;;;;;;4.57;3.40;;;;;;;21.41;41.46;94073.38;4955595;28;20027;-89
2021/01/13 01:37:34;;;;;;;5.47;3.70;;;;;;;21.39;41.41;94065.03;4955456;28;20151;-89
2021/01/13 01:40:00;;;;;;;4.20;3.50;;;;;;;21.12;41.44;94020.03;4956156;28;20027;-89
2021/01/13 01:42:26;;;;;;;4.55;3.55;;;;;;;21.36;41.41;94052.47;4955633;28;20042;-89
2021/01/13 01:44:54;;;;;;;4.53;3.50;;;;;;;21.36;41.34;94059.88;4955733;29;20027;-89
2021/01/13 01:47:21;;;;;;;4.50;3.25;;;;;;;21.34;41.34;94046.81;4955398;28;20424;-89
2021/01/13 01:49:46;;;;;;;4.38;3.35;;;;;;;21.29;41.54;94042.22;4955077;29;20086;-89
2021/01/13 01:52:15;;;;;;;5.05;4.07;;;;;;;21.34;41.39;94057.69;4955486;29;20031;-89
2021/01/13 01:54:50;;;;;;;4.78;3.83;;;;;;;21.33;41.46;94052.75;4971361;28;20038;-89
2021/01/13 01:57:16;;;;;;;4.95;3.70;;;;;;;21.30;41.43;94051.09;4954376;29;20023;-89
2021/01/13 01:59:51;;;;;;;5.05;3.55;;;;;;;21.30;41.48;94051.84;4956301;28;20034;-90
2021/01/13 02:02:17;;;;;;;5.78;4.35;;;;;;;21.30;41.55;94035.53;4957582;28;20507;-89
2021/01/13 02:04:43;;;;;;;4.28;3.38;;;;;;;21.29;41.44;94042.22;4956004;29;20027;-89
2021/01/13 02:07:09;;;;;;;5.40;4.05;;;;;;;21.27;41.51;94031.16;4957658;28;20031;-89
2021/01/13 02:09:34;;;;;;;5.13;3.20;;;;;;;21.27;41.51;94035.84;4960500;28;20026;-89
2021/01/13 02:12:00;;;;;;;5.55;3.72;;;;;;;21.23;41.52;94030.72;4977160;28;20031;-89
2021/01/13 02:14:26;;;;;;;4.82;3.75;;;;;;;21.25;41.54;94039.06;4976175;28;20101;-90
2021/01/13 02:16:53;;;;;;;5.00;3.45;;;;;;;21.22;41.49;94037.38;4976844;28;20044;-89
2021/01/13 02:19:42;;;;;;;5.82;3.70;;;;;;;21.20;41.58;94026.31;4977337;28;20031;-89
2021/01/13 02:22:16;;;;;;;4.90;3.53;;;;;;;21.20;41.52;94031.03;4969116;28;20039;-90
2021/01/13 02:24:50;;;;;;;5.43;3.90;;;;;;;21.18;41.55;94034.25;4976678;28;20113;-89
2021/01/13 02:27:53;;;;;;;5.03;3.55;;;;;;;21.18;41.64;94034.25;4976615;28;20026;-89
2021/01/13 02:30:23;;;;;;;5.50;3.67;;;;;;;21.17;41.60;94043.66;4976461;28;20133;-89
2021/01/13 02:32:48;;;;;;;4.13;3.40;;;;;;;21.13;41.44;94040.50;4976685;28;20039;-89
2021/01/13 02:35:18;;;;;;;5.30;3.92;;;;;;;21.00;41.69;94028.84;4975887;28;20038;-89
2021/01/13 02:38:08;;;;;;;4.28;3.40;;;;;;;21.11;41.67;94040.28;4978253;28;20027;-90
2021/01/13 02:40:34;;;;;;;4.95;3.63;;;;;;;21.09;41.79;94042.78;4970099;28;20579;-89
2021/01/13 02:43:07;;;;;;;5.30;3.97;;;;;;;21.06;41.88;94041.13;4979595;28;20031;-90
2021/01/13 02:45:40;;;;;;;5.45;3.85;;;;;;;21.06;41.54;94035.69;4988174;28;20062;-90
2021/01/13 02:48:09;;;;;;;5.13;3.80;;;;;;;21.05;41.99;94034.22;4976786;28;20022;-90
2021/01/13 02:50:42;;;;;;;5.13;3.50;;;;;;;21.02;41.74;94032.53;4978186;28;20412;-90
2021/01/13 02:53:13;;;;;;;4.88;3.67;;;;;;;21.02;41.86;94024.38;4978769;28;20030;-88
2021/01/13 02:56:07;;;;;;;4.93;3.90;;;;;;;21.05;41.76;94031.50;4965916;28;20066;-89
2021/01/13 02:58:36;;;;;;;5.00;3.85;;;;;;;21.04;41.67;94026.59;4927539;29;20106;-90
2021/01/13 03:01:06;;;;;;;5.10;3.90;;;;;;;20.99;41.90;94022.72;4940567;29;20031;-90
2021/01/13 03:03:33;;;;;;;5.65;3.78;;;;;;;21.04;41.65;94027.31;4943924;29;20028;-90
2021/01/13 03:06:06;;;;;;;5.28;3.90;;;;;;;21.02;41.66;94016.25;4938046;29;20043;-90
2021/01/13 03:08:50;;;;;;;5.15;3.80;;;;;;;21.00;41.72;94018.75;4938886;29;20389;-90
2021/01/13 03:11:20;;;;;;;4.22;3.38;;;;;;;21.00;41.75;94012.56;4938276;29;20051;-90
2021/01/13 03:13:45;;;;;;;5.65;4.00;;;;;;;21.00;41.73;94012.56;4921808;29;20028;-89
2021/01/13 03:16:12;;;;;;;5.38;3.90;;;;;;;20.95;41.82;94012.69;4938435;29;20066;-90
2021/01/13 03:19:01;;;;;;;5.00;4.20;;;;;;;20.97;41.76;94019.78;4937247;29;20091;-90
2021/01/13 03:21:34;;;;;;;5.55;3.83;;;;;;;20.97;41.73;94025.22;4938551;29;20031;-90
2021/01/13 03:24:14;;;;;;;5.80;4.30;;;;;;;20.97;41.75;94021.78;4923056;29;20501;-91
2021/01/13 03:26:43;;;;;;;5.65;4.00;;;;;;;20.95;41.66;94016.13;4937799;29;20026;-90
2021/01/13 03:29:09;;;;;;;5.75;3.85;;;;;;;20.78;41.90;93990.50;4940812;29;20043;-91
2021/01/13 03:31:45;;;;;;;4.93;3.63;;;;;;;20.95;41.68;94018.09;4976757;28;20014;-90
2021/01/13 03:34:25;;;;;;;4.95;3.78;;;;;;;20.93;41.86;94023.34;4993730;28;20064;-86
2021/01/13 03:37:08;;;;;;;5.25;3.70;;;;;;;20.94;41.83;94027.50;4993305;28;20011;-90
2021/01/13 03:39:38;;;;;;;5.18;3.72;;;;;;;20.91;41.71;94025.81;4971738;28;20058;-91
2021/01/13 03:42:06;;;;;;;5.90;4.10;;;;;;;20.91;41.87;94031.22;4973941;28;20035;-90
2021/01/13 03:44:32;;;;;;;5.95;4.18;;;;;;;20.89;41.85;94028.31;4987799;28;20534;-90
2021/01/13 03:47:17;;;;;;;5.45;3.88;;;;;;;20.91;41.77;94025.81;4971985;28;20075;-89
2021/01/13 03:49:52;;;;;;;5.93;4.53;;;;;;;20.83;41.80;94020.25;4970728;28;20015;-90
2021/01/13 03:52:17;;;;;;;5.15;3.55;;;;;;;21.00;41.72;94035.03;4966592;29;20053;-91
2021/01/13 03:54:43;;;;;;;5.65;3.78;;;;;;;21.08;41.54;94019.59;4962548;28;20480;-91
2021/01/13 03:57:09;;;;;;;5.38;4.05;;;;;;;21.17;41.49;94016.50;4958816;29;20500;-90
2021/01/13 03:59:52;;;;;;;5.65;4.30;;;;;;;21.27;41.52;94022.25;4958456;28;20030;-90
2021/01/13 04:02:18;;;;;;;5.00;3.78;;;;;;;21.33;41.26;94026.38;4971139;28;20030;-89
2021/01/13 04:04:54;;;;;;;5.10;3.75;;;;;;;21.38;41.19;94030.97;4975911;28;20034;-90
2021/01/13 04:07:20;;;;;;;5.07;3.67;;;;;;;21.43;41.10;94032.84;4976930;28;20027;-82
2021/01/13 04:09:46;;;;;;;5.53;3.78;;;;;;;21.47;41.16;94038.75;4959838;28;20050;-90
2021/01/13 04:12:13;;;;;;;6.05;4.38;;;;;;;21.51;40.91;94039.16;4977047;28;20037;-90
2021/01/13 04:14:51;;;;;;;5.40;3.88;;;;;;;21.53;40.80;94033.94;4976950;28;20468;-90
2021/01/13 04:17:16;;;;;;;4.85;3.28;;;;;;;21.56;40.82;94030.19;4976986;28;20109;-89
2021/01/13 04:19:43;;;;;;;5.32;3.85;;;;;;;21.57;40.77;94037.09;4976265;28;20482;-90
2021/01/13 04:22:09;;;;;;;5.22;3.70;;;;;;;21.59;40.71;94040.72;4977066;28;20483;-90
2021/01/13 04:24:34;;;;;;;6.18;4.38;;;;;;;21.62;40.79;94044.41;4959869;28;20027;-90
2021/01/13 04:27:00;;;;;;;5.28;4.20;;;;;;;21.64;40.71;94041.88;4976627;28;20089;-90
2021/01/13 04:29:26;;;;;;;5.20;3.90;;;;;;;21.66;40.46;94044.84;4976657;28;20023;-90
2021/01/13 04:31:51;;;;;;;5.40;4.22;;;;;;;21.67;40.64;94046.28;4976563;28;20110;-89
2021/01/13 04:34:17;;;;;;;4.80;3.78;;;;;;;21.69;40.70;94049.22;4977069;28;20502;-90
2021/01/13 04:36:43;;;;;;;5.90;4.13;;;;;;;21.69;40.68;94049.22;4977329;28;20037;-91
2021/01/13 04:39:08;;;;;;;6.15;4.07;;;;;;;21.72;40.64;94048.16;4960179;28;20023;-91
2021/01/13 04:41:42;;;;;;;6.40;4.30;;;;;;;21.58;40.68;94016.81;4956079;29;20086;-91
2021/01/13 04:44:08;;;;;;;6.15;4.15;;;;;;;21.44;40.45;93993.56;4972192;28;20030;-91
2021/01/13 04:46:38;;;;;;;5.43;4.20;;;;;;;21.77;40.51;94039.19;4955650;29;20051;-90
2021/01/13 04:49:10;;;;;;;5.80;4.47;;;;;;;21.79;40.51;94036.69;4957348;28;20082;-90
2021/01/13 04:51:39;;;;;;;5.50;4.25;;;;;;;21.82;40.48;94041.06;4956612;28;20050;-91
2021/01/13 04:54:10;;;;;;;5.70;4.40;;;;;;;21.81;40.51;94037.63;4956393;28;20039;-91
2021/01/13 04:56:45;;;;;;;6.20;4.43;;;;;;;21.84;40.35;94044.75;4956913;28;20416;-90
2021/01/13 04:59:47;;;;;;;5.85;4.30;;;;;;;21.87;40.37;94053.81;4956726;28;20034;-91
2021/01/13 05:02:17;;;;;;;6.65;4.70;;;;;;;21.87;40.39;94051.09;4974114;28;20038;-90
2021/01/13 05:05:04;;;;;;;5.97;4.50;;;;;;;21.89;40.44;94051.31;4976266;28;20484;-91
2021/01/13 05:07:39;;;;;;;5.20;3.95;;;;;;;21.91;40.23;94059.69;4977392;28;20037;-89
2021/01/13 05:10:09;;;;;;;6.07;4.10;;;;;;;21.92;40.21;94051.72;4978379;28;20121;-91
2021/01/13 05:12:37;;;;;;;5.55;4.30;;;;;;;21.93;40.33;94058.63;4977710;28;20037;-91
2021/01/13 05:15:03;;;;;;;5.43;4.05;;;;;;;21.93;40.07;94066.78;4978308;28;20031;-90
2021/01/13 05:17:35;;;;;;;6.65;4.63;;;;;;;21.95;40.24;94061.56;4978165;28;20045;-90
2021/01/13 05:20:06;;;;;;;6.22;4.57;;;;;;;21.96;39.96;94068.47;4976045;28;20062;-91
2021/01/13 05:22:33;;;;;;;6.57;4.65;;;;;;;21.97;40.34;94069.19;4975835;28;20030;-91
2021/01/13 05:25:04;;;;;;;6.35;4.55;;;;;;;21.97;40.04;94069.94;4975735;28;20035;-91
2021/01/13 05:27:30;;;;;;;6.22;4.50;;;;;;;21.98;40.19;94063.22;4974794;28;20031;-91
2021/01/13 05:29:59;;;;;;;5.97;4.53;;;;;;;22.00;40.08;94063.47;4975356;28;20404;-91
2021/01/13 05:32:24;;;;;;;6.10;4.70;;;;;;;21.99;39.94;94056.53;4975530;28;20046;-92
2021/01/13 05:34:50;;;;;;;6.88;5.20;;;;;;;22.01;40.05;94064.91;4958840;28;20030;-91
2021/01/13 05:37:17;;;;;;;6.20;4.38;;;;;;;22.02;39.99;94060.94;4974044;28;20033;-91
2021/01/13 05:39:44;;;;;;;5.65;4.15;;;;;;;21.83;40.16;94020.81;4959362;28;20023;-92
2021/01/13 05:42:10;;;;;;;5.95;4.47;;;;;;;22.06;39.98;94061.38;4969219;28;20035;-88
2021/01/13 05:44:36;;;;;;;6.07;4.32;;;;;;;22.06;39.90;94072.25;4957519;28;20051;-85
2021/01/13 05:47:04;;;;;;;5.95;4.50;;;;;;;22.06;40.02;94077.69;4957545;28;20043;-87
2021/01/13 05:49:29;;;;;;;6.35;4.78;;;;;;;22.07;40.21;94083.84;4968752;28;20042;-81
2021/01/13 05:52:05;;;;;;;6.03;4.57;;;;;;;22.08;40.23;94075.16;4963410;28;20031;-80
2021/01/13 05:54:38;;;;;;;6.28;4.80;;;;;;;22.10;40.41;94078.09;4972782;28;20098;-83
2021/01/13 05:57:04;;;;;;;6.70;4.80;;;;;;;22.13;40.41;94087.91;4964698;28;20046;-81
2021/01/13 05:59:30;;;;;;;6.35;4.72;;;;;;;22.16;40.25;94080.72;4972342;28;20070;-80
2021/01/13 06:02:00;;;;;;;7.28;4.70;;;;;;;22.14;40.48;94073.06;4962357;28;20611;-80
2021/01/13 06:04:27;;;;;;;6.80;4.68;;;;;;;22.17;40.32;94072.03;4965885;28;20459;-77
2021/01/13 06:07:05;;;;;;;6.50;4.53;;;;;;;22.28;40.36;94093.59;4961843;28;20346;-83
2021/01/13 06:09:34;;;;;;;7.30;4.47;;;;;;;22.31;40.27;94081.66;4965717;28;20138;-87
2021/01/13 06:12:00;;;;;;;6.80;5.00;;;;;;;22.25;39.93;94067.44;4953643;28;20489;-89
2021/01/13 06:14:26;;;;;;;6.95;4.55;;;;;;;22.26;40.12;94074.34;4950805;29;20041;-84
2021/01/13 06:16:52;;;;;;;7.63;5.22;;;;;;;22.54;39.75;94099.00;4961516;28;20031;-82
2021/01/13 06:19:18;;;;;;;6.75;5.28;;;;;;;22.62;39.76;94099.84;4966563;28;20110;-82
2021/01/13 06:21:47;;;;;;;6.32;4.63;;;;;;;22.72;39.85;94103.56;4962708;28;20038;-84
2021/01/13 06:24:13;;;;;;;6.25;4.47;;;;;;;22.81;39.80;94100.41;4962636;28;20081;-85
2021/01/13 06:27:02;;;;;;;6.22;4.78;;;;;;;22.91;39.74;94099.44;4965896;28;20030;-79
2021/01/13 06:29:39;;;;;;;8.30;4.68;;;;;;;23.00;39.99;94097.06;4967399;28;20034;-81
2021/01/13 06:32:14;;;;;;;7.60;5.10;;;;;;;23.10;40.34;94095.34;4965269;28;20027;-83
2021/01/13 06:34:55;;;;;;;6.38;4.78;;;;;;;23.20;40.22;94099.06;4946334;29;20054;-84
2021/01/13 06:37:22;;;;;;;8.15;5.05;;;;;;;23.27;40.22;94098.41;4956132;28;20051;-81
2021/01/13 06:39:51;;;;;;;8.25;5.38;;;;;;;23.37;39.98;94091.25;4952775;28;20038;-83
2021/01/13 06:42:28;;;;;;;7.13;5.07;;;;;;;23.50;39.36;94110.28;4958268;28;20042;-87
2021/01/13 06:44:53;;;;;;;7.63;5.00;;;;;;;23.55;39.50;94109.41;4956096;28;20023;-88
2021/01/13 06:47:19;;;;;;;7.38;5.22;;;;;;;23.47;39.37;94089.53;4955234;28;20023;-81
2021/01/13 06:49:48;;;;;;;9.25;5.18;;;;;;;23.65;39.24;94104.97;4958597;29;20034;-86
2021/01/13 06:52:14;;;;;;;7.53;5.13;;;;;;;23.75;39.05;94116.84;4964705;28;20023;-82
2021/01/13 06:54:44;;;;;;;7.05;5.18;;;;;;;23.76;38.98;94113.59;4961366;28;20031;-81
2021/01/13 06:57:09;;;;;;;8.05;5.22;;;;;;;23.85;38.89;94113.13;4957065;28;20110;-78
2021/01/13 06:59:37;;;;;;;8.30;5.43;;;;;;;23.86;38.44;94109.88;4958881;29;20031;-77
2021/01/13 07:02:03;;;;;;;6.15;4.50;;;;;;;23.73;38.31;94078.50;4948645;29;20504;-75
2021/01/13 07:04:28;;;;;;;8.43;5.22;;;;;;;24.08;38.21;94141.28;4952577;28;20034;-76
2021/01/13 07:07:02;;;;;;;6.90;5.60;;;;;;;24.13;38.02;94138.44;4953274;28;20432;-79
2021/01/13 07:09:44;;;;;;;6.57;4.93;;;;;;;24.21;38.36;94127.56;4958177;28;20031;-80
2021/01/13 07:12:14;;;;;;;7.32;4.97;;;;;;;24.24;38.25;94132.69;4963276;28;20027;-86
2021/01/13 07:14:44;;;;;;;7.43;4.82;;;;;;;24.34;37.66;94130.97;4961089;28;20038;-84
2021/01/13 07:17:13;;;;;;;7.28;4.75;;;;;;;24.31;38.09;94129.28;4959294;28;20428;-85
2021/01/13 07:19:41;;;;;;;7.07;4.90;;;;;;;24.44;37.25;94140.13;4967566;28;20031;-78
2021/01/13 07:22:07;;;;;;;6.80;4.72;;;;;;;24.46;37.47;94132.13;4957693;28;20397;-83
2021/01/13 07:24:32;;;;;;;7.57;4.80;;;;;;;24.50;37.52;94138.00;4976717;28;20092;-81
2021/01/13 07:26:58;;;;;;;6.80;5.30;;;;;;;24.50;37.40;94138.00;4966565;28;20411;-82
2021/01/13 07:29:27;;;;;;;8.88;5.22;;;;;;;24.58;37.40;94138.75;4958763;28;20560;-88
2021/01/13 07:31:57;;;;;;;7.93;5.60;;;;;;;24.45;36.66;94103.38;4963978;28;20160;-88
2021/01/13 07:34:30;;;;;;;8.15;5.45;;;;;;;24.67;37.16;94124.59;4969862;28;20023;-88
2021/01/13 07:37:07;;;;;;;6.85;5.10;;;;;;;24.69;36.77;94143.91;4972660;28;20023;-90
2021/01/13 07:39:57;;;;;;;7.00;4.95;;;;;;;24.72;36.35;94126.44;4959299;28;20443;-70
2021/01/13 07:42:44;;;;;;;8.15;5.30;;;;;;;24.72;36.50;94131.91;4970011;28;20045;-70
2021/01/13 07:45:16;;;;;;;6.90;5.10;;;;;;;24.70;36.94;94139.91;4970883;28;20145;-70
2021/01/13 07:47:56;;;;;;;7.45;4.97;;;;;;;24.72;36.45;94137.38;4972293;28;20143;-70
2021/01/13 07:50:22;;;;;;;7.32;4.97;;;;;;;24.68;36.28;94139.69;4969332;28;20182;-70
2021/01/13 07:52:49;;;;;;;6.38;4.82;;;;;;;24.63;36.80;94146.06;4966394;28;20134;-70
2021/01/13 07:55:21;;;;;;;7.25;5.03;;;;;;;24.53;36.68;94147.84;4913521;28;20452;-69
2021/01/13 07:57:51;;;;;;;8.80;5.60;;;;;;;24.47;36.58;94149.97;4958736;28;20046;-70
2021/01/13 08:00:19;;;;;;;;;;;;;;;24.38;36.81;94147.75;4963154;28;20031;-70
2021/01/13 08:03:25;;;;;;;7.20;5.32;;;;;;;24.27;37.08;94134.34;4970926;28;19975;-70
2021/01/13 08:05:59;;;;;;;8.95;5.75;;;;;;;24.13;37.40;94143.91;4958368;28;20145;-70
2021/01/13 08:08:25;;;;;;;7.28;4.95;;;;;;;24.06;37.72;94143.84;4971329;28;20094;-69
2021/01/13 08:10:51;;;;;;;6.90;5.07;;;;;;;23.98;37.68;94143.78;4970838;28;20031;-69
2021/01/13 08:13:23;;;;;;;9.48;5.30;;;;;;;23.97;37.57;94145.03;4968061;28;20027;-70
2021/01/13 08:16:09;;;;;;;8.00;4.95;;;;;;;23.85;37.38;94151.31;4968272;28;20118;-70
2021/01/13 08:18:57;;;;;;;8.23;5.22;;;;;;;23.85;37.51;94156.75;4969790;28;20039;-70
2021/01/13 08:21:40;;;;;;;8.32;5.72;;;;;;;23.60;37.36;94130.31;4963938;28;20042;-69
2021/01/13 08:26:32;;;;;;;8.30;5.55;;;;;;;23.72;37.93;94158.81;4961622;28;20023;-69
2021/01/13 08:28:58;;;;;;;9.05;5.32;;;;;;;23.67;37.51;94162.41;4958831;28;20027;-69
2021/01/13 08:31:26;;;;;;;8.90;5.45;;;;;;;23.60;37.64;94176.66;4961856;28;20018;-69
2021/01/13 08:34:10;;;;;;;8.95;5.80;;;;;;;23.41;38.25;94162.50;4964367;28;20376;-69
2021/01/13 08:36:37;;;;;;;8.30;5.43;;;;;;;23.50;39.04;94181.13;4960393;28;20575;-69
2021/01/13 08:39:07;;;;;;;7.57;5.38;;;;;;;23.53;38.93;94186.25;4950911;28;20108;-69
2021/01/13 08:41:32;;;;;;;7.93;4.97;;;;;;;23.53;38.97;94190.97;4957525;28;20480;-69
2021/01/13 08:44:03;;;;;;;8.45;5.10;;;;;;;23.54;38.92;94204.06;4954115;28;20042;-69
2021/01/13 08:46:40;;;;;;;10.23;5.60;;;;;;;23.53;39.48;94207.31;4967638;28;20043;-69
2021/01/13 08:49:06;;;;;;;8.55;5.63;;;;;;;23.55;39.01;94210.22;4961672;28;20054;-69
2021/01/13 08:51:32;;;;;;;9.20;5.30;;;;;;;23.56;39.26;94208.97;4953651;28;20035;-70
2021/01/13 08:54:23;;;;;;;8.40;5.80;;;;;;;23.55;38.85;94212.97;4938520;28;20182;-70
2021/01/13 08:56:58;;;;;;;8.48;5.88;;;;;;;23.55;38.99;94221.13;4973770;28;20027;-70
2021/01/13 08:59:33;;;;;;;8.00;5.35;;;;;;;23.51;39.01;94215.28;4969912;28;20035;-71
2021/01/13 09:02:02;;;;;;;7.47;5.47;;;;;;;23.51;39.06;94226.16;4955976;28;20824;-69
2021/01/13 09:04:40;;;;;;;7.70;5.50;;;;;;;23.48;38.71;94221.78;4960794;28;20428;-70
2021/01/13 09:07:06;;;;;;;7.43;5.25;;;;;;;23.46;39.05;94218.84;4959322;28;20039;-70
2021/01/13 09:09:32;;;;;;;9.00;5.57;;;;;;;23.26;38.81;94195.03;4969360;28;20042;-70
2021/01/13 09:11:58;;;;;;;8.73;5.85;;;;;;;23.40;39.13;94215.53;4965073;28;20124;-69
2021/01/13 09:14:24;;;;;;;7.30;5.07;;;;;;;23.37;39.23;94216.56;4933788;29;20043;-69
2021/01/13 09:16:56;;;;;;;7.90;5.60;;;;;;;23.33;38.82;94210.72;4935169;29;20039;-69
2021/01/13 09:19:31;;;;;;;8.48;5.53;;;;;;;23.29;39.08;94213.03;4935043;29;20028;-70
2021/01/13 09:22:00;;;;;;;7.95;5.07;;;;;;;23.29;39.24;94210.31;4934913;29;20069;-70
2021/01/13 09:24:26;;;;;;;9.05;5.57;;;;;;;23.13;39.12;94186.88;4934625;29;20111;-70
2021/01/13 09:26:53;;;;;;;8.88;5.10;;;;;;;23.27;38.77;94207.38;4944169;28;20038;-74
2021/01/13 09:29:19;;;;;;;7.40;5.05;;;;;;;23.22;39.27;94208.22;4960881;28;20015;-73
2021/01/13 09:32:11;;;;;;;7.72;5.30;;;;;;;23.21;38.85;94211.47;4968945;28;20106;-73
2021/01/13 09:34:37;;;;;;;7.22;4.78;;;;;;;23.19;39.10;94201.09;4967235;28;20035;-69
2021/01/13 09:37:02;;;;;;;9.20;5.90;;;;;;;23.19;39.10;94195.66;4952273;28;20038;-70
2021/01/13 09:39:35;;;;;;;8.13;5.00;;;;;;;23.15;38.75;94206.16;4953456;28;20031;-69
2021/01/13 09:42:02;;;;;;;8.88;5.13;;;;;;;23.14;38.76;94199.25;4953302;28;20035;-70
2021/01/13 09:44:32;;;;;;;8.75;5.60;;;;;;;23.12;38.82;94196.31;4955568;28;20039;-70
2021/01/13 09:47:20;;;;;;;7.95;5.32;;;;;;;23.11;38.98;94194.13;4952894;28;20055;-70
2021/01/13 09:49:45;;;;;;;8.23;5.50;;;;;;;23.07;38.95;94191.69;4952012;29;20035;-70
2021/01/13 09:52:11;;;;;;;7.18;5.25;;;;;;;23.10;38.94;94201.53;4936821;28;20034;-69
2021/01/13 09:54:37;;;;;;;11.25;7.18;;;;;;;22.69;37.56;94148.16;4959298;28;20026;-69
2021/01/13 09:57:02;;;;;;;9.30;5.63;;;;;;;22.84;38.40;94164.69;4951739;28;20030;-70
2021/01/13 09:59:28;;;;;;;9.40;5.68;;;;;;;22.97;38.56;94177.06;4952347;29;20023;-68
2021/01/13 10:01:57;;;;;;;8.18;5.90;;;;;;;22.92;38.53;94166.97;4952953;28;20031;-70
2021/01/13 10:04:23;;;;;;;9.35;6.13;;;;;;;22.98;38.50;94175.81;4963512;28;20049;-83
2021/01/13 10:06:52;;;;;;;9.00;5.55;;;;;;;22.99;38.40;94174.56;4955471;28;20047;-83
2021/01/13 10:09:18;;;;;;;8.27;5.07;;;;;;;23.01;38.86;94174.75;4955381;28;20035;-82
2021/01/13 10:11:45;;;;;;;9.02;5.97;;;;;;;23.05;38.90;94166.28;4954871;28;20114;-71
2021/01/13 10:14:10;;;;;;;7.60;5.35;;;;;;;23.07;38.59;94172.63;4955971;28;20511;-79
2021/01/13 10:16:43;;;;;;;8.50;5.70;;;;;;;23.08;38.79;94162.50;4955755;28;20051;-87
2021/01/13 10:19:09;;;;;;;7.68;5.35;;;;;;;23.02;38.81;94159.88;4955646;28;20035;-86
2021/01/13 10:21:39;;;;;;;8.05;5.10;;;;;;;22.99;39.39;94160.94;4955052;28;20034;-86
2021/01/13 10:24:05;;;;;;;9.52;5.80;;;;;;;22.97;39.21;94158.03;4955968;28;20031;-86
2021/01/13 10:26:43;;;;;;;10.20;5.90;;;;;;;22.93;39.22;94152.16;4957556;28;20542;-86
2021/01/13 10:29:09;;;;;;;8.90;5.13;;;;;;;22.73;38.86;94132.25;4956854;28;20028;-86
2021/01/13 10:31:35;;;;;;;7.30;5.00;;;;;;;22.94;39.37;94153.63;4956675;28;20034;-86
2021/01/13 10:34:01;;;;;;;9.43;5.65;;;;;;;22.92;39.30;94161.53;4957069;28;20110;-86
2021/01/13 10:36:29;;;;;;;9.43;5.50;;;;;;;22.93;39.33;94162.28;4956711;28;20057;-86
2021/01/13 10:38:55;;;;;;;9.25;5.60;;;;;;;22.89;39.16;94151.69;4956530;28;20492;-86
2021/01/13 10:41:35;;;;;;;8.57;5.32;;;;;;;22.88;39.12;94146.06;4956511;28;20058;-86
2021/01/13 10:44:05;;;;;;;9.38;5.60;;;;;;;22.87;39.45;94141.88;4956474;28;20026;-86
2021/01/13 10:47:06;;;;;;;7.15;5.10;;;;;;;22.90;39.21;94145.00;4956304;28;20065;-85
2021/01/13 10:49:33;;;;;;;10.20;5.20;;;;;;;22.90;39.32;94141.56;4956077;28;20035;-87
2021/01/13 10:52:04;;;;;;;8.88;5.28;;;;;;;22.88;39.38;94144.81;4956007;28;20082;-86
2021/01/13 10:54:31;;;;;;;9.20;5.63;;;;;;;22.90;38.98;94142.28;4955588;28;20413;-86
2021/01/13 10:56:59;;;;;;;8.48;5.38;;;;;;;22.88;39.04;94139.38;4954962;28;20027;-87
2021/01/13 10:59:25;;;;;;;8.32;5.60;;;;;;;22.89;39.12;94135.38;4955924;28;20022;-86
2021/01/13 11:01:54;;;;;;;9.45;6.03;;;;;;;22.89;39.00;94127.19;4956264;28;20584;-86
2021/01/13 11:04:26;;;;;;;8.48;5.75;;;;;;;22.89;38.90;94127.19;4955351;29;20361;-86
2021/01/13 11:07:03;;;;;;;8.73;5.60;;;;;;;22.88;39.41;94127.72;4961771;28;20091;-86
2021/01/13 11:09:28;;;;;;;10.07;5.43;;;;;;;22.88;39.03;94129.72;4976315;28;20043;-86
2021/01/13 11:11:54;;;;;;;8.90;6.00;;;;;;;22.87;39.00;94137.16;4990079;28;20508;-86
2021/01/13 11:14:36;;;;;;;23.98;6.88;;;;;;;22.86;38.93;94134.97;4966990;28;20031;-74
2021/01/13 11:17:10;;;;;;;16.52;5.72;;;;;;;22.72;39.21;94120.66;4952550;28;20043;-82
2021/01/13 11:19:37;;;;;;;12.32;5.68;;;;;;;22.73;39.48;94105.06;4964837;28;20389;-74
2021/01/13 11:22:02;;;;;;;11.18;5.63;;;;;;;22.91;39.18;94105.66;4974874;28;20054;-76
2021/01/13 11:24:31;;;;;;;10.63;5.72;;;;;;;22.95;38.67;94116.22;4957932;28;20024;-77
2021/01/13 11:26:59;;;;;;;13.07;6.45;;;;;;;22.99;37.86;94111.19;4969119;28;20022;-75
2021/01/13 11:29:28;;;;;;;11.35;6.50;;;;;;;22.92;38.19;94112.53;4961234;28;20078;-77
2021/01/13 11:31:54;;;;;;;10.30;6.50;;;;;;;22.83;37.14;94100.63;4983485;28;20035;-77
2021/01/13 11:34:21;;;;;;;12.90;6.85;;;;;;;22.98;37.85;94118.63;4979541;28;20071;-79
2021/01/13 11:36:47;;;;;;;10.68;6.95;;;;;;;22.98;37.79;94126.78;4965209;28;20042;-87
2021/01/13 11:39:17;;;;;;;13.15;6.82;;;;;;;22.92;38.14;94144.47;4953044;29;20023;-86
2021/01/13 11:41:46;;;;;;;15.13;7.05;;;;;;;22.93;38.34;94141.25;4984154;28;20027;-84
2021/01/13 11:44:26;;;;;;;11.52;7.00;;;;;;;22.95;39.50;94149.63;4983172;28;20030;-87
2021/01/13 11:47:27;;;;;;;12.38;6.60;;;;;;;22.98;39.08;94148.56;4965884;28;20055;-77
2021/01/13 11:49:54;;;;;;;10.70;6.72;;;;;;;23.00;39.04;94143.34;4962943;28;20115;-85
2021/01/13 11:52:22;;;;;;;10.77;6.35;;;;;;;23.10;39.01;94152.53;4947761;28;20515;-76